TRINITY LAKE (CLE)

Elevation: 2370' · TRINITY R basin · Operator: US Bureau of Reclamation

Provisional data, subject to change.
Query executed Tuesday at 8:43:43   clock

Select a sensor type for a plot of data.
Note: Reservoir Flows are daily averages.

Earlier

Date RES ELE    STORAGE    RES CHG    OUTFLOW    INFLOW    EVAP    FNF    RIV REL    PPT INC    SPILL    DIS PWR   
 FEET   AF   AF   CFS   CFS   CFS   CFS   CFS   INCHES   CFS   CFS  
04/25/2016 2302.17 1488003 4422 953 3242 60 3242 0 0.00 0 953
04/26/2016 2302.36 1490281 2278 1450 2665 67 2665 0 0.00 0 1450
04/27/2016 2302.48 1491719 1438 1874 2655 56 2655 0 0.18 0 1874
04/28/2016 2302.63 1493517 -- 1504 2456 46 2456 0 0.13 0 1504
04/29/2016 2302.70 1494356 839 2120 2603 60 2603 0 0.00 0 2120
04/30/2016 2302.63 1493517 -839 2917 2572 78 2572 0 0.00 0 2917
05/01/2016 2302.68 1494116 599 2328 2722 92 2722 5 0.00 0 2323
05/02/2016 2302.70 1494356 240 2809 2986 56 2986 0 0.00 0 2809
05/03/2016 2302.74 1494835 479 2743 3058 74 3058 0 0.00 0 2743
05/04/2016 2302.72 1494595 -240 3396 3303 28 3303 0 0.02 0 3396
05/05/2016 2302.76 1495075 480 3105 3368 21 3368 0 0.05 0 3105
05/06/2016 2302.76 1495075 0 3745 3763 18 3763 0 0.17 0 3745
05/07/2016 2302.76 1495075 0 4094 4094 0 4094 199 0.17 0 3895
05/08/2016 2302.56 1492678 0 5571 4412 49 5610 1470 0.00 0 4101
05/09/2016 2301.94 1485251 -4075 8467 4797 74 4604 e 5433 0.00 0 3034
05/10/2016 2301.15 1475831 -11711 8548 3876 77 3876 e 6449 0.00 0 2099
05/11/2016 2300.51 1468231 -3567 7208 3463 87 3463 5706 0.00 0 1502
05/12/2016 2299.98 1461946 -7828 5979 2897 87 2897 3722 0.00 0 2257
05/13/2016 2299.27 1453571 -2477 7891 3759 90 3759 e 5950 0.00 0 1941
05/14/2016 2298.45 1443935 0 9029 4264 93 3706 e 7089 0.00 0 1940
05/15/2016 2297.76 1435859 0 6815 2812 69 3706 e 4918 0.01 0 1897
05/16/2016 2297.18 1429096 -29207 5549 2207 68 3737 e 3102 0.01 0 2447
05/17/2016 2296.91 1425954 0 4230 2742 96 2770 e 1155 0.00 0 3075
05/18/2016 2296.71 1423635 -5700 3998 2918 89 2770 e 607 0.00 0 3391
05/19/2016 2296.57 1422012 -2550 3932 3227 113 2759 1388 0.00 0 2544
05/20/2016 2296.25 1418302 -3710 4024 2249 95 1978 e 670 0.00 0 3354
05/21/2016 2295.45 1409065 -9237 3970 -660 27 1978 e 509 0.00 0 3461
05/22/2016 2295.48 1409410 345 3900 4074 0 1707 e 509 0.31 0 3391
05/23/2016 2295.19 1406068 -3342 3905 2281 61 -- 509 0.01 0 3396
05/24/2016 -- -- -- -- -- -- -- -- -- -- --

Later | Latest

Warning! This data is preliminary and subject to revision.

Show CLE Map | Plot CLE Data | 1 Month CLE Data | Real-Time CLE Data | CLE Info